Frankston, Australia
Current Conditions -  °F | °C
As of 12:00 PM on Wednesday 26 Nov 2014 (Local Time) from YMEN Reporting Station
Overcast Overcast  
Wind Chill: 63°   Ceiling: 3500
Heat Index: 63°   Visibility: 6mi
Dew Point: 48°   Wind: 7mph
Humidity: 59%   Direction: 160°SSE
Pressure: 30.15"   Gusts: NA
Location:  38.15°S, 145.12°E
Report Text: YMEN 260100Z AUTO 16006KT 120V210 9999 // OVC035 17/09 Q1021
Loading
Personal Weather Stations






























Interactive Weather Map New forecast layout! Learn more

10-Day Weather Forecast

Advertisements
Track Severe Weather on mobile